WXM80 ListenWXM80 Stop

You find our weather info also at:

UK Metoffice

WeatherCloud

Weather Underground

Northeastern Weather Network

AWEKAS

Citizen Weather Observer Program (CWOP)

HAMweather, WeatherForYou, PWS Weather


Weather Underground History page Text

Daily Summary for February 15, 2017 Units:  Both    English   Metric
« Previous Day
Next Day »
Daily Weekly Monthly Yearly Custom
  High: Low: Average:
Temperature: 43.3 °F /  6.3 °C 32.8 °F /  0.4 °C 37.7 °F /  3.2 °C
Dew Point: 39.2 °F /  4 °C 28.7 °F /  -1.8 °C 34.8 °F /  1.6 °C
Humidity: 96 % 73 % 89 %
Wind Speed: 10.8 mph /  17.4 km/h - 2.5 mph /  4 km/h
Wind Gust: 18.4 mph /  29.6 km/h - -
Wind:- - SW
Pressure: 29.70 in /  1005.6 hPa 29.25 in /  990.4 hPa -
Precipitation: 0.00 in /  0 mm    
Historical Graphs
 
 
Tabular Data for February 15, 2017
Time Temperature Dew Point Pressure Wind Wind Speed Wind Gust Humidity Rainfall Rate (Hourly)
00:00 35.5 °F /  1.9 °C 32.9 °F /  0.5 °C 29.70 in /  1005.6 hPa South 0.9 mph /  1.4 km/h 3.0 mph /  4.8 km/h 90 % 0.00 in /  0 mm
00:05 35.5 °F /  1.9 °C 32.9 °F /  0.5 °C 29.70 in /  1005.6 hPa SSE 1.5 mph /  2.4 km/h 3.5 mph /  5.6 km/h 90 % 0.00 in /  0 mm
00:10 35.5 °F /  1.9 °C 32.6 °F /  0.3 °C 29.70 in /  1005.6 hPa South 2.7 mph /  4.3 km/h 4.6 mph /  7.4 km/h 89 % 0.00 in /  0 mm
00:15 35.4 °F /  1.9 °C 32.5 °F /  0.3 °C 29.70 in /  1005.6 hPa SSW 3.4 mph /  5.5 km/h 5.8 mph /  9.3 km/h 89 % 0.00 in /  0 mm
00:20 35.5 °F /  1.9 °C 32.6 °F /  0.3 °C 29.70 in /  1005.6 hPa SSW 4.3 mph /  6.9 km/h 6.9 mph /  11.1 km/h 89 % 0.00 in /  0 mm
00:25 35.5 °F /  1.9 °C 32.6 °F /  0.3 °C 29.69 in /  1005.3 hPa SSW 3.4 mph /  5.5 km/h 4.6 mph /  7.4 km/h 89 % 0.00 in /  0 mm
00:30 35.6 °F /  2 °C 32.7 °F /  0.4 °C 29.69 in /  1005.3 hPa South 2.4 mph /  3.9 km/h 4.6 mph /  7.4 km/h 89 % 0.00 in /  0 mm
00:35 35.6 °F /  2 °C 32.7 °F /  0.4 °C 29.68 in /  1005 hPa South 4.4 mph /  7.1 km/h 6.9 mph /  11.1 km/h 89 % 0.00 in /  0 mm
00:40 35.7 °F /  2.1 °C 33.1 °F /  0.6 °C 29.68 in /  1005 hPa SW 2.6 mph /  4.2 km/h 4.6 mph /  7.4 km/h 90 % 0.00 in /  0 mm
00:45 35.8 °F /  2.1 °C 33.2 °F /  0.7 °C 29.68 in /  1005 hPa SSW 4.4 mph /  7.1 km/h 6.9 mph /  11.1 km/h 90 % 0.00 in /  0 mm
00:50 35.9 °F /  2.2 °C 33.3 °F /  0.7 °C 29.67 in /  1004.6 hPa South 4.6 mph /  7.4 km/h 6.9 mph /  11.1 km/h 90 % 0.00 in /  0 mm
00:55 36.0 °F /  2.2 °C 33.4 °F /  0.8 °C 29.67 in /  1004.6 hPa South 2.6 mph /  4.2 km/h 4.6 mph /  7.4 km/h 90 % 0.00 in /  0 mm
01:00 36.0 °F /  2.2 °C 33.4 °F /  0.8 °C 29.67 in /  1004.6 hPa SSW 1.7 mph /  2.7 km/h 4.0 mph /  6.4 km/h 90 % 0.00 in /  0 mm
01:05 36.1 °F /  2.3 °C 33.7 °F /  0.9 °C 29.67 in /  1004.6 hPa South 2.4 mph /  3.9 km/h 4.6 mph /  7.4 km/h 91 % 0.00 in /  0 mm
01:10 36.1 °F /  2.3 °C 33.7 °F /  0.9 °C 29.67 in /  1004.6 hPa SSW 2.1 mph /  3.4 km/h 4.6 mph /  7.4 km/h 91 % 0.00 in /  0 mm
01:15 36.1 °F /  2.3 °C 33.7 °F /  0.9 °C 29.66 in /  1004.3 hPa South 1.8 mph /  2.9 km/h 7.0 mph /  11.3 km/h 91 % 0.00 in /  0 mm
01:20 36.1 °F /  2.3 °C 33.7 °F /  0.9 °C 29.66 in /  1004.3 hPa SSW 1.6 mph /  2.6 km/h 4.6 mph /  7.4 km/h 91 % 0.00 in /  0 mm
01:25 36.2 °F /  2.3 °C 34.1 °F /  1.2 °C 29.66 in /  1004.3 hPa South 6.7 mph /  10.8 km/h 10.4 mph /  16.7 km/h 92 % 0.00 in /  0 mm
01:31 36.3 °F /  2.4 °C 34.2 °F /  1.2 °C 29.66 in /  1004.3 hPa SSW 3.3 mph /  5.3 km/h 5.8 mph /  9.3 km/h 92 % 0.00 in /  0 mm
01:36 36.4 °F /  2.4 °C 34.3 °F /  1.3 °C 29.66 in /  1004.3 hPa SSW 4.4 mph /  7.1 km/h 6.9 mph /  11.1 km/h 92 % 0.00 in /  0 mm
01:41 36.5 °F /  2.5 °C 34.4 °F /  1.3 °C 29.66 in /  1004.3 hPa SSW 5.2 mph /  8.4 km/h 10.4 mph /  16.7 km/h 92 % 0.00 in /  0 mm
01:46 36.6 °F /  2.6 °C 34.8 °F /  1.6 °C 29.66 in /  1004.3 hPa SSW 4.0 mph /  6.4 km/h 6.0 mph /  9.7 km/h 93 % 0.00 in /  0 mm
01:51 36.6 °F /  2.6 °C 34.8 °F /  1.6 °C 29.66 in /  1004.3 hPa South 2.6 mph /  4.2 km/h 6.9 mph /  11.1 km/h 93 % 0.00 in /  0 mm
01:56 36.7 °F /  2.6 °C 34.9 °F /  1.6 °C 29.66 in /  1004.3 hPa SW 2.8 mph /  4.5 km/h 7.0 mph /  11.3 km/h 93 % 0.00 in /  0 mm
02:01 36.7 °F /  2.6 °C 34.9 °F /  1.6 °C 29.66 in /  1004.3 hPa SW 3.0 mph /  4.8 km/h 6.0 mph /  9.7 km/h 93 % 0.00 in /  0 mm
02:06 36.8 °F /  2.7 °C 35.0 °F /  1.7 °C 29.66 in /  1004.3 hPa SW 1.5 mph /  2.4 km/h 3.5 mph /  5.6 km/h 93 % 0.00 in /  0 mm
02:11 36.8 °F /  2.7 °C 35.0 °F /  1.7 °C 29.65 in /  1003.9 hPa WSW 3.9 mph /  6.3 km/h 6.9 mph /  11.1 km/h 93 % 0.00 in /  0 mm
02:16 36.8 °F /  2.7 °C 35.0 °F /  1.7 °C 29.65 in /  1003.9 hPa SW 3.4 mph /  5.5 km/h 4.6 mph /  7.4 km/h 93 % 0.00 in /  0 mm
02:21 36.8 °F /  2.7 °C 35.0 °F /  1.7 °C 29.65 in /  1003.9 hPa SSW 2.6 mph /  4.2 km/h 5.8 mph /  9.3 km/h 93 % 0.00 in /  0 mm
02:26 36.8 °F /  2.7 °C 35.0 °F /  1.7 °C 29.65 in /  1003.9 hPa SW 2.8 mph /  4.5 km/h 4.6 mph /  7.4 km/h 93 % 0.00 in /  0 mm
02:31 36.8 °F /  2.7 °C 35.0 °F /  1.7 °C 29.64 in /  1003.6 hPa SW 2.3 mph /  3.7 km/h 3.5 mph /  5.6 km/h 93 % 0.00 in /  0 mm
02:36 36.7 °F /  2.6 °C 34.9 °F /  1.6 °C 29.64 in /  1003.6 hPa WSW 2.9 mph /  4.7 km/h 5.8 mph /  9.3 km/h 93 % 0.00 in /  0 mm
02:42 36.7 °F /  2.6 °C 34.9 °F /  1.6 °C 29.64 in /  1003.6 hPa SW 4.4 mph /  7.1 km/h 8.1 mph /  13 km/h 93 % 0.00 in /  0 mm
02:47 36.8 °F /  2.7 °C 35.0 °F /  1.7 °C 29.64 in /  1003.6 hPa SW 2.6 mph /  4.2 km/h 3.5 mph /  5.6 km/h 93 % 0.00 in /  0 mm
02:52 36.7 °F /  2.6 °C 34.9 °F /  1.6 °C 29.63 in /  1003.3 hPa SW 1.4 mph /  2.3 km/h 4.0 mph /  6.4 km/h 93 % 0.00 in /  0 mm
02:57 36.7 °F /  2.6 °C 34.9 °F /  1.6 °C 29.63 in /  1003.3 hPa SW 2.2 mph /  3.5 km/h 3.5 mph /  5.6 km/h 93 % 0.00 in /  0 mm
03:02 36.7 °F /  2.6 °C 34.9 °F /  1.6 °C 29.62 in /  1002.9 hPa West 2.6 mph /  4.2 km/h 6.0 mph /  9.7 km/h 93 % 0.00 in /  0 mm
03:12 36.7 °F /  2.6 °C 34.9 °F /  1.6 °C 29.62 in /  1002.9 hPa WSW 3.9 mph /  6.3 km/h 6.0 mph /  9.7 km/h 93 % 0.00 in /  0 mm
03:17 36.6 °F /  2.6 °C 34.5 °F /  1.4 °C 29.61 in /  1002.6 hPa SSW 3.3 mph /  5.3 km/h 7.0 mph /  11.3 km/h 92 % 0.00 in /  0 mm
03:22 36.5 °F /  2.5 °C 34.4 °F /  1.3 °C 29.61 in /  1002.6 hPa SSW 3.3 mph /  5.3 km/h 4.6 mph /  7.4 km/h 92 % 0.00 in /  0 mm
03:32 36.3 °F /  2.4 °C 34.2 °F /  1.2 °C 29.61 in /  1002.6 hPa SSW 2.1 mph /  3.4 km/h 5.0 mph /  8 km/h 92 % 0.00 in /  0 mm
03:37 36.2 °F /  2.3 °C 34.4 °F /  1.3 °C 29.61 in /  1002.6 hPa SW 2.8 mph /  4.5 km/h 5.8 mph /  9.3 km/h 93 % 0.00 in /  0 mm
03:42 36.2 °F /  2.3 °C 34.4 °F /  1.3 °C 29.60 in /  1002.3 hPa SSW 4.9 mph /  7.9 km/h 6.9 mph /  11.1 km/h 93 % 0.00 in /  0 mm
03:48 36.2 °F /  2.3 °C 34.4 °F /  1.3 °C 29.60 in /  1002.3 hPa SW 4.2 mph /  6.8 km/h 5.0 mph /  8 km/h 93 % 0.00 in /  0 mm
03:53 36.2 °F /  2.3 °C 34.4 °F /  1.3 °C 29.60 in /  1002.3 hPa SW 2.7 mph /  4.3 km/h 6.9 mph /  11.1 km/h 93 % 0.00 in /  0 mm
03:58 36.3 °F /  2.4 °C 34.5 °F /  1.4 °C 29.59 in /  1001.9 hPa SW 4.2 mph /  6.8 km/h 7.0 mph /  11.3 km/h 93 % 0.00 in /  0 mm
04:03 36.4 °F /  2.4 °C 34.6 °F /  1.4 °C 29.59 in /  1001.9 hPa SW 2.5 mph /  4 km/h 3.5 mph /  5.6 km/h 93 % 0.00 in /  0 mm
04:08 36.3 °F /  2.4 °C 34.5 °F /  1.4 °C 29.58 in /  1001.6 hPa SW 2.9 mph /  4.7 km/h 6.0 mph /  9.7 km/h 93 % 0.00 in /  0 mm
04:13 36.3 °F /  2.4 °C 34.5 °F /  1.4 °C 29.58 in /  1001.6 hPa SSW 3.1 mph /  5 km/h 3.5 mph /  5.6 km/h 93 % 0.00 in /  0 mm
04:18 36.3 °F /  2.4 °C 34.5 °F /  1.4 °C 29.58 in /  1001.6 hPa SSW 2.2 mph /  3.5 km/h 4.6 mph /  7.4 km/h 93 % 0.00 in /  0 mm
04:23 36.2 °F /  2.3 °C 34.4 °F /  1.3 °C 29.57 in /  1001.2 hPa SW 2.3 mph /  3.7 km/h 2.3 mph /  3.7 km/h 93 % 0.00 in /  0 mm
04:28 36.2 °F /  2.3 °C 34.4 °F /  1.3 °C 29.57 in /  1001.2 hPa SW 1.4 mph /  2.3 km/h 3.5 mph /  5.6 km/h 93 % 0.00 in /  0 mm
04:33 36.1 °F /  2.3 °C 34.3 °F /  1.3 °C 29.57 in /  1001.2 hPa SW 1.0 mph /  1.6 km/h 1.2 mph /  1.9 km/h 93 % 0.00 in /  0 mm
04:38 36.1 °F /  2.3 °C 34.3 °F /  1.3 °C 29.57 in /  1001.2 hPa SW 0.1 mph /  0.2 km/h 1.2 mph /  1.9 km/h 93 % 0.00 in /  0 mm
04:43 36.0 °F /  2.2 °C 33.9 °F /  1.1 °C 29.57 in /  1001.2 hPa Calm     92 % 0.00 in /  0 mm
04:48 36.0 °F /  2.2 °C 33.9 °F /  1.1 °C 29.56 in /  1000.9 hPa SW 0.1 mph /  0.2 km/h 1.2 mph /  1.9 km/h 92 % 0.00 in /  0 mm
04:53 35.9 °F /  2.2 °C 33.8 °F /  1 °C 29.56 in /  1000.9 hPa SW 0.3 mph /  0.5 km/h 1.2 mph /  1.9 km/h 92 % 0.00 in /  0 mm
04:58 35.6 °F /  2 °C 33.5 °F /  0.8 °C 29.57 in /  1001.2 hPa SSW 2.3 mph /  3.7 km/h 4.6 mph /  7.4 km/h 92 % 0.00 in /  0 mm
05:03 35.4 °F /  1.9 °C 33.0 °F /  0.6 °C 29.57 in /  1001.2 hPa SSW 2.0 mph /  3.2 km/h 5.0 mph /  8 km/h 91 % 0.00 in /  0 mm
05:08 35.3 °F /  1.8 °C 33.2 °F /  0.7 °C 29.56 in /  1000.9 hPa South 2.5 mph /  4 km/h 4.0 mph /  6.4 km/h 92 % 0.00 in /  0 mm
05:13 35.2 °F /  1.8 °C 33.1 °F /  0.6 °C 29.56 in /  1000.9 hPa SSW 2.0 mph /  3.2 km/h 5.0 mph /  8 km/h 92 % 0.00 in /  0 mm
05:18 35.1 °F /  1.7 °C 33.0 °F /  0.6 °C 29.56 in /  1000.9 hPa SSW 2.0 mph /  3.2 km/h 5.0 mph /  8 km/h 92 % 0.00 in /  0 mm
05:23 35.1 °F /  1.7 °C 33.0 °F /  0.6 °C 29.56 in /  1000.9 hPa SSW 2.0 mph /  3.2 km/h 5.0 mph /  8 km/h 92 % 0.00 in /  0 mm
05:28 35.2 °F /  1.8 °C 33.1 °F /  0.6 °C 29.56 in /  1000.9 hPa SSW 2.0 mph /  3.2 km/h 4.0 mph /  6.4 km/h 92 % 0.00 in /  0 mm
05:33 35.2 °F /  1.8 °C 33.4 °F /  0.8 °C 29.56 in /  1000.9 hPa SSW 2.0 mph /  3.2 km/h 4.0 mph /  6.4 km/h 93 % 0.00 in /  0 mm
05:38 35.2 °F /  1.8 °C 33.4 °F /  0.8 °C 29.56 in /  1000.9 hPa SSW 1.0 mph /  1.6 km/h 3.0 mph /  4.8 km/h 93 % 0.00 in /  0 mm
05:43 35.2 °F /  1.8 °C 33.1 °F /  0.6 °C 29.56 in /  1000.9 hPa SSW 1.0 mph /  1.6 km/h 4.0 mph /  6.4 km/h 92 % 0.00 in /  0 mm
05:48 35.2 °F /  1.8 °C 33.1 °F /  0.6 °C 29.56 in /  1000.9 hPa Calm   2.0 mph /  3.2 km/h 92 % 0.00 in /  0 mm
05:53 35.2 °F /  1.8 °C 33.1 °F /  0.6 °C 29.56 in /  1000.9 hPa Calm   3.0 mph /  4.8 km/h 92 % 0.00 in /  0 mm
06:03 35.1 °F /  1.7 °C 33.0 °F /  0.6 °C 29.55 in /  1000.6 hPa Calm   3.0 mph /  4.8 km/h 92 % 0.00 in /  0 mm
06:08 35.1 °F /  1.7 °C 33.0 °F /  0.6 °C 29.56 in /  1000.9 hPa Calm     92 % 0.00 in /  0 mm
06:13 35.1 °F /  1.7 °C 33.0 °F /  0.6 °C 29.55 in /  1000.6 hPa Calm   1.0 mph /  1.6 km/h 92 % 0.00 in /  0 mm
06:18 35.0 °F /  1.7 °C 32.9 °F /  0.5 °C 29.55 in /  1000.6 hPa Calm     92 % 0.00 in /  0 mm
06:23 35.0 °F /  1.7 °C 32.9 °F /  0.5 °C 29.55 in /  1000.6 hPa Calm     92 % 0.00 in /  0 mm
06:28 34.8 °F /  1.6 °C 32.7 °F /  0.4 °C 29.55 in /  1000.6 hPa Calm     92 % 0.00 in /  0 mm
06:33 34.7 °F /  1.5 °C 32.3 °F /  0.2 °C 29.55 in /  1000.6 hPa Calm     91 % 0.00 in /  0 mm
06:38 34.5 °F /  1.4 °C 32.1 °F /  0.1 °C 29.55 in /  1000.6 hPa Calm   1.0 mph /  1.6 km/h 91 % 0.00 in /  0 mm
06:43 34.3 °F /  1.3 °C 31.9 °F /  -0.1 °C 29.55 in /  1000.6 hPa Calm     91 % 0.00 in /  0 mm
06:44 34.3 °F /  1.3 °C 31.9 °F /  -0.1 °C 29.55 in /  1000.6 hPa Calm     91 % 0.00 in /  0 mm
06:49 34.0 °F /  1.1 °C 31.4 °F /  -0.3 °C 29.54 in /  1000.2 hPa Calm     90 % 0.00 in /  0 mm
06:54 33.7 °F /  0.9 °C 31.1 °F /  -0.5 °C 29.54 in /  1000.2 hPa Calm     90 % 0.00 in /  0 mm
06:59 33.5 °F /  0.8 °C 30.9 °F /  -0.6 °C 29.54 in /  1000.2 hPa Calm     90 % 0.00 in /  0 mm
07:04 33.3 °F /  0.7 °C 30.7 °F /  -0.7 °C 29.54 in /  1000.2 hPa Calm     90 % 0.00 in /  0 mm
07:09 33.0 °F /  0.6 °C 30.4 °F /  -0.9 °C 29.53 in /  999.9 hPa Calm     90 % 0.00 in /  0 mm
07:14 32.9 °F /  0.5 °C 30.6 °F /  -0.8 °C 29.53 in /  999.9 hPa Calm     91 % 0.00 in /  0 mm
07:19 32.9 °F /  0.5 °C 30.6 °F /  -0.8 °C 29.53 in /  999.9 hPa WSW 0.1 mph /  0.2 km/h 1.2 mph /  1.9 km/h 91 % 0.00 in /  0 mm
07:24 32.8 °F /  0.4 °C 30.7 °F /  -0.7 °C 29.52 in /  999.5 hPa Calm     92 % 0.00 in /  0 mm
07:29 32.8 °F /  0.4 °C 30.7 °F /  -0.7 °C 29.53 in /  999.9 hPa Calm     92 % 0.00 in /  0 mm
07:34 32.8 °F /  0.4 °C 30.7 °F /  -0.7 °C 29.52 in /  999.5 hPa Calm     92 % 0.00 in /  0 mm
07:39 32.8 °F /  0.4 °C 31.0 °F /  -0.6 °C 29.52 in /  999.5 hPa Calm     93 % 0.00 in /  0 mm
07:44 32.8 °F /  0.4 °C 31.0 °F /  -0.6 °C 29.51 in /  999.2 hPa Calm     93 % 0.00 in /  0 mm
07:49 32.8 °F /  0.4 °C 31.0 °F /  -0.6 °C 29.51 in /  999.2 hPa Calm     93 % 0.00 in /  0 mm
07:54 32.8 °F /  0.4 °C 31.0 °F /  -0.6 °C 29.51 in /  999.2 hPa Calm     93 % 0.00 in /  0 mm
08:00 32.9 °F /  0.5 °C 31.1 °F /  -0.5 °C 29.51 in /  999.2 hPa Calm     93 % 0.00 in /  0 mm
08:05 32.9 °F /  0.5 °C 31.1 °F /  -0.5 °C 29.51 in /  999.2 hPa Calm     93 % 0.00 in /  0 mm
08:10 33.1 °F /  0.6 °C 31.3 °F /  -0.4 °C 29.50 in /  998.9 hPa Calm     93 % 0.00 in /  0 mm
08:15 33.2 °F /  0.7 °C 31.4 °F /  -0.3 °C 29.50 in /  998.9 hPa Calm     93 % 0.00 in /  0 mm
08:20 33.5 °F /  0.8 °C 32.0 °F /  0 °C 29.50 in /  998.9 hPa Calm     94 % 0.00 in /  0 mm
08:25 33.7 °F /  0.9 °C 32.2 °F /  0.1 °C 29.50 in /  998.9 hPa Calm     94 % 0.00 in /  0 mm
08:30 34.0 °F /  1.1 °C 32.5 °F /  0.3 °C 29.49 in /  998.5 hPa Calm     94 % 0.00 in /  0 mm
08:36 34.3 °F /  1.3 °C 32.8 °F /  0.4 °C 29.48 in /  998.2 hPa Calm     94 % 0.00 in /  0 mm
08:41 34.6 °F /  1.4 °C 33.1 °F /  0.6 °C 29.48 in /  998.2 hPa Calm     94 % 0.00 in /  0 mm
08:46 34.9 °F /  1.6 °C 33.6 °F /  0.9 °C 29.47 in /  997.9 hPa Calm     95 % 0.00 in /  0 mm
08:51 35.3 °F /  1.8 °C 34.0 °F /  1.1 °C 29.47 in /  997.9 hPa Calm     95 % 0.00 in /  0 mm
08:56 35.6 °F /  2 °C 34.3 °F /  1.3 °C 29.47 in /  997.9 hPa Calm     95 % 0.00 in /  0 mm
09:01 35.9 °F /  2.2 °C 34.6 °F /  1.4 °C 29.47 in /  997.9 hPa Calm     95 % 0.00 in /  0 mm
09:06 36.3 °F /  2.4 °C 35.0 °F /  1.7 °C 29.47 in /  997.9 hPa Calm     95 % 0.00 in /  0 mm
09:11 36.7 °F /  2.6 °C 35.4 °F /  1.9 °C 29.47 in /  997.9 hPa Calm     95 % 0.00 in /  0 mm
09:16 37.2 °F /  2.9 °C 36.2 °F /  2.3 °C 29.46 in /  997.5 hPa Calm     96 % 0.00 in /  0 mm
09:21 37.6 °F /  3.1 °C 36.3 °F /  2.4 °C 29.47 in /  997.9 hPa Calm     95 % 0.00 in /  0 mm
09:26 37.9 °F /  3.3 °C 36.6 °F /  2.6 °C 29.47 in /  997.9 hPa Calm     95 % 0.00 in /  0 mm
09:31 38.3 °F /  3.5 °C 37.0 °F /  2.8 °C 29.47 in /  997.9 hPa Calm     95 % 0.00 in /  0 mm
09:36 38.6 °F /  3.7 °C 37.3 °F /  2.9 °C 29.47 in /  997.9 hPa Calm     95 % 0.00 in /  0 mm
09:41 38.8 °F /  3.8 °C 37.5 °F /  3.1 °C 29.46 in /  997.5 hPa Calm     95 % 0.00 in /  0 mm
09:46 39.1 °F /  3.9 °C 37.8 °F /  3.2 °C 29.46 in /  997.5 hPa Calm     95 % 0.00 in /  0 mm
09:52 39.4 °F /  4.1 °C 38.1 °F /  3.4 °C 29.45 in /  997.2 hPa Calm     95 % 0.00 in /  0 mm
09:57 39.7 °F /  4.3 °C 38.4 °F /  3.6 °C 29.44 in /  996.8 hPa Calm     95 % 0.00 in /  0 mm
10:02 40.0 °F /  4.4 °C 38.4 °F /  3.6 °C 29.44 in /  996.8 hPa WSW 0.4 mph /  0.6 km/h 1.2 mph /  1.9 km/h 94 % 0.00 in /  0 mm
10:07 40.2 °F /  4.6 °C 38.3 °F /  3.5 °C 29.45 in /  997.2 hPa NW 2.4 mph /  3.9 km/h 3.5 mph /  5.6 km/h 93 % 0.00 in /  0 mm
10:12 40.4 °F /  4.7 °C 38.3 °F /  3.5 °C 29.44 in /  996.8 hPa NNW 3.2 mph /  5.1 km/h 4.0 mph /  6.4 km/h 92 % 0.00 in /  0 mm
10:17 40.6 °F /  4.8 °C 38.5 °F /  3.6 °C 29.44 in /  996.8 hPa NNE 2.3 mph /  3.7 km/h 3.5 mph /  5.6 km/h 92 % 0.00 in /  0 mm
10:22 40.7 °F /  4.8 °C 38.3 °F /  3.5 °C 29.44 in /  996.8 hPa NE 1.5 mph /  2.4 km/h 3.5 mph /  5.6 km/h 91 % 0.00 in /  0 mm
10:27 40.7 °F /  4.8 °C 38.3 °F /  3.5 °C 29.43 in /  996.5 hPa ENE 3.2 mph /  5.1 km/h 4.6 mph /  7.4 km/h 91 % 0.00 in /  0 mm
10:32 40.6 °F /  4.8 °C 38.2 °F /  3.4 °C 29.43 in /  996.5 hPa North 4.8 mph /  7.7 km/h 6.9 mph /  11.1 km/h 91 % 0.00 in /  0 mm
10:37 40.6 °F /  4.8 °C 37.9 °F /  3.3 °C 29.43 in /  996.5 hPa NNE 3.6 mph /  5.8 km/h 4.6 mph /  7.4 km/h 90 % 0.00 in /  0 mm
10:42 40.7 °F /  4.8 °C 38.0 °F /  3.3 °C 29.43 in /  996.5 hPa NNE 4.6 mph /  7.4 km/h 6.0 mph /  9.7 km/h 90 % 0.00 in /  0 mm
10:47 40.7 °F /  4.8 °C 38.0 °F /  3.3 °C 29.43 in /  996.5 hPa NNE 1.8 mph /  2.9 km/h 3.5 mph /  5.6 km/h 90 % 0.00 in /  0 mm
10:52 40.7 °F /  4.8 °C 38.0 °F /  3.3 °C 29.43 in /  996.5 hPa NNE 3.0 mph /  4.8 km/h 4.6 mph /  7.4 km/h 90 % 0.00 in /  0 mm
10:57 40.8 °F /  4.9 °C 38.1 °F /  3.4 °C 29.42 in /  996.2 hPa NNE 1.9 mph /  3.1 km/h 4.0 mph /  6.4 km/h 90 % 0.00 in /  0 mm
11:02 40.8 °F /  4.9 °C 37.8 °F /  3.2 °C 29.42 in /  996.2 hPa NNE 3.3 mph /  5.3 km/h 5.0 mph /  8 km/h 89 % 0.00 in /  0 mm
11:07 40.7 °F /  4.8 °C 37.7 °F /  3.2 °C 29.42 in /  996.2 hPa NNE 0.8 mph /  1.3 km/h 2.0 mph /  3.2 km/h 89 % 0.00 in /  0 mm
11:12 40.7 °F /  4.8 °C 38.0 °F /  3.3 °C 29.42 in /  996.2 hPa Calm   3.5 mph /  5.6 km/h 90 % 0.00 in /  0 mm
11:17 40.9 °F /  4.9 °C 38.2 °F /  3.4 °C 29.41 in /  995.8 hPa NNW 2.2 mph /  3.5 km/h 3.5 mph /  5.6 km/h 90 % 0.00 in /  0 mm
11:22 40.9 °F /  4.9 °C 37.9 °F /  3.3 °C 29.41 in /  995.8 hPa NNW 0.4 mph /  0.6 km/h 2.3 mph /  3.7 km/h 89 % 0.00 in /  0 mm
11:27 41.0 °F /  5 °C 38.0 °F /  3.3 °C 29.41 in /  995.8 hPa NNW 0.9 mph /  1.4 km/h 3.5 mph /  5.6 km/h 89 % 0.00 in /  0 mm
11:32 41.1 °F /  5.1 °C 38.1 °F /  3.4 °C 29.41 in /  995.8 hPa NNW 0.8 mph /  1.3 km/h 2.3 mph /  3.7 km/h 89 % 0.00 in /  0 mm
11:37 41.2 °F /  5.1 °C 38.2 °F /  3.4 °C 29.40 in /  995.5 hPa Calm   1.2 mph /  1.9 km/h 89 % 0.00 in /  0 mm
11:42 41.2 °F /  5.1 °C 38.2 °F /  3.4 °C 29.39 in /  995.1 hPa NNW 0.2 mph /  0.3 km/h 1.2 mph /  1.9 km/h 89 % 0.00 in /  0 mm
11:48 41.1 °F /  5.1 °C 38.1 °F /  3.4 °C 29.39 in /  995.1 hPa Calm   1.0 mph /  1.6 km/h 89 % 0.00 in /  0 mm
11:53 41.0 °F /  5 °C 38.0 °F /  3.3 °C 29.39 in /  995.1 hPa Calm     89 % 0.00 in /  0 mm
11:58 41.1 °F /  5.1 °C 38.1 °F /  3.4 °C 29.39 in /  995.1 hPa Calm     89 % 0.00 in /  0 mm
12:03 41.2 °F /  5.1 °C 38.5 °F /  3.6 °C 29.39 in /  995.1 hPa NNW 0.1 mph /  0.2 km/h 1.2 mph /  1.9 km/h 90 % 0.00 in /  0 mm
12:08 41.4 °F /  5.2 °C 38.7 °F /  3.7 °C 29.38 in /  994.8 hPa NNW 0.3 mph /  0.5 km/h 1.2 mph /  1.9 km/h 90 % 0.00 in /  0 mm
12:13 41.5 °F /  5.3 °C 38.5 °F /  3.6 °C 29.38 in /  994.8 hPa NNW 1.2 mph /  1.9 km/h 3.5 mph /  5.6 km/h 89 % 0.00 in /  0 mm
12:18 41.6 °F /  5.3 °C 38.6 °F /  3.7 °C 29.38 in /  994.8 hPa NNW 1.1 mph /  1.8 km/h 2.3 mph /  3.7 km/h 89 % 0.00 in /  0 mm
12:23 41.7 °F /  5.4 °C 38.7 °F /  3.7 °C 29.38 in /  994.8 hPa NNW 1.5 mph /  2.4 km/h 3.5 mph /  5.6 km/h 89 % 0.00 in /  0 mm
12:28 41.8 °F /  5.4 °C 38.5 °F /  3.6 °C 29.37 in /  994.5 hPa NNW 0.7 mph /  1.1 km/h 2.3 mph /  3.7 km/h 88 % 0.00 in /  0 mm
12:33 41.9 °F /  5.5 °C 38.6 °F /  3.7 °C 29.37 in /  994.5 hPa NNW 1.0 mph /  1.6 km/h 1.2 mph /  1.9 km/h 88 % 0.00 in /  0 mm
12:38 42.0 °F /  5.6 °C 38.4 °F /  3.6 °C 29.36 in /  994.1 hPa NNW 0.5 mph /  0.8 km/h 2.3 mph /  3.7 km/h 87 % 0.00 in /  0 mm
12:43 42.1 °F /  5.6 °C 38.5 °F /  3.6 °C 29.36 in /  994.1 hPa Calm   1.2 mph /  1.9 km/h 87 % 0.00 in /  0 mm
12:53 42.2 °F /  5.7 °C 38.6 °F /  3.7 °C 29.35 in /  993.8 hPa NNW 0.3 mph /  0.5 km/h 2.3 mph /  3.7 km/h 87 % 0.00 in /  0 mm
12:58 42.5 °F /  5.8 °C 38.9 °F /  3.8 °C 29.34 in /  993.5 hPa NNW 1.7 mph /  2.7 km/h 2.0 mph /  3.2 km/h 87 % 0.00 in /  0 mm
13:03 42.4 °F /  5.8 °C 38.5 °F /  3.6 °C 29.34 in /  993.5 hPa NNW 0.9 mph /  1.4 km/h 3.5 mph /  5.6 km/h 86 % 0.00 in /  0 mm
13:08 42.3 °F /  5.7 °C 38.7 °F /  3.7 °C 29.34 in /  993.5 hPa North 1.3 mph /  2.1 km/h 2.3 mph /  3.7 km/h 87 % 0.00 in /  0 mm
13:13 42.2 °F /  5.7 °C 38.6 °F /  3.7 °C 29.33 in /  993.1 hPa North 2.0 mph /  3.2 km/h 3.0 mph /  4.8 km/h 87 % 0.00 in /  0 mm
13:18 42.1 °F /  5.6 °C 38.5 °F /  3.6 °C 29.33 in /  993.1 hPa Calm   3.0 mph /  4.8 km/h 87 % 0.00 in /  0 mm
13:23 42.4 °F /  5.8 °C 38.8 °F /  3.8 °C 29.33 in /  993.1 hPa NNE 3.6 mph /  5.8 km/h 4.6 mph /  7.4 km/h 87 % 0.00 in /  0 mm
13:28 42.6 °F /  5.9 °C 39.0 °F /  3.9 °C 29.33 in /  993.1 hPa NNE 2.0 mph /  3.2 km/h 5.0 mph /  8 km/h 87 % 0.00 in /  0 mm
13:33 42.9 °F /  6.1 °C 39.0 °F /  3.9 °C 29.33 in /  993.1 hPa NNE 1.0 mph /  1.6 km/h 3.0 mph /  4.8 km/h 86 % 0.00 in /  0 mm
13:38 43.2 °F /  6.2 °C 39.2 °F /  4 °C 29.32 in /  992.8 hPa NNE 1.0 mph /  1.6 km/h 2.0 mph /  3.2 km/h 86 % 0.00 in /  0 mm
13:43 43.1 °F /  6.2 °C 38.9 °F /  3.8 °C 29.32 in /  992.8 hPa NNE 1.0 mph /  1.6 km/h 3.0 mph /  4.8 km/h 85 % 0.00 in /  0 mm
13:48 43.3 °F /  6.3 °C 39.0 °F /  3.9 °C 29.32 in /  992.8 hPa NE 2.0 mph /  3.2 km/h 3.0 mph /  4.8 km/h 85 % 0.00 in /  0 mm
13:53 43.0 °F /  6.1 °C 38.8 °F /  3.8 °C 29.32 in /  992.8 hPa NE 1.0 mph /  1.6 km/h 3.0 mph /  4.8 km/h 85 % 0.00 in /  0 mm
13:58 42.7 °F /  5.9 °C 38.5 °F /  3.6 °C 29.31 in /  992.4 hPa NE 1.6 mph /  2.6 km/h 3.5 mph /  5.6 km/h 85 % 0.00 in /  0 mm
14:03 42.5 °F /  5.8 °C 38.3 °F /  3.5 °C 29.31 in /  992.4 hPa NE 1.5 mph /  2.4 km/h 3.5 mph /  5.6 km/h 85 % 0.00 in /  0 mm
14:08 42.2 °F /  5.7 °C 38.3 °F /  3.5 °C 29.30 in /  992.1 hPa NE 1.2 mph /  1.9 km/h 3.5 mph /  5.6 km/h 86 % 0.00 in /  0 mm
14:13 42.0 °F /  5.6 °C 38.1 °F /  3.4 °C 29.30 in /  992.1 hPa NE 0.3 mph /  0.5 km/h 2.3 mph /  3.7 km/h 86 % 0.00 in /  0 mm
14:18 41.8 °F /  5.4 °C 37.9 °F /  3.3 °C 29.30 in /  992.1 hPa NE 2.1 mph /  3.4 km/h 3.5 mph /  5.6 km/h 86 % 0.00 in /  0 mm
14:24 41.6 °F /  5.3 °C 38.0 °F /  3.3 °C 29.30 in /  992.1 hPa NE 1.9 mph /  3.1 km/h 2.3 mph /  3.7 km/h 87 % 0.00 in /  0 mm
14:29 41.4 °F /  5.2 °C 37.8 °F /  3.2 °C 29.30 in /  992.1 hPa NE 1.6 mph /  2.6 km/h 2.3 mph /  3.7 km/h 87 % 0.00 in /  0 mm
14:34 41.3 °F /  5.2 °C 38.0 °F /  3.3 °C 29.30 in /  992.1 hPa NE 1.9 mph /  3.1 km/h 3.5 mph /  5.6 km/h 88 % 0.00 in /  0 mm
14:39 41.2 °F /  5.1 °C 37.9 °F /  3.3 °C 29.29 in /  991.8 hPa NE 1.4 mph /  2.3 km/h 3.5 mph /  5.6 km/h 88 % 0.00 in /  0 mm
14:44 40.9 °F /  4.9 °C 37.6 °F /  3.1 °C 29.29 in /  991.8 hPa NE 0.7 mph /  1.1 km/h 3.5 mph /  5.6 km/h 88 % 0.00 in /  0 mm
14:49 40.8 °F /  4.9 °C 37.8 °F /  3.2 °C 29.30 in /  992.1 hPa NE 1.1 mph /  1.8 km/h 2.3 mph /  3.7 km/h 89 % 0.00 in /  0 mm
14:54 40.8 °F /  4.9 °C 37.8 °F /  3.2 °C 29.30 in /  992.1 hPa NE 1.5 mph /  2.4 km/h 2.3 mph /  3.7 km/h 89 % 0.00 in /  0 mm
14:59 40.8 °F /  4.9 °C 37.8 °F /  3.2 °C 29.29 in /  991.8 hPa NE 0.1 mph /  0.2 km/h 2.3 mph /  3.7 km/h 89 % 0.00 in /  0 mm
15:09 40.8 °F /  4.9 °C 37.8 °F /  3.2 °C 29.29 in /  991.8 hPa NE 2.1 mph /  3.4 km/h 3.0 mph /  4.8 km/h 89 % 0.00 in /  0 mm
15:14 40.7 °F /  4.8 °C 37.7 °F /  3.2 °C 29.29 in /  991.8 hPa NE 0.3 mph /  0.5 km/h 1.2 mph /  1.9 km/h 89 % 0.00 in /  0 mm
15:19 40.7 °F /  4.8 °C 37.7 °F /  3.2 °C 29.29 in /  991.8 hPa NE 0.2 mph /  0.3 km/h 2.3 mph /  3.7 km/h 89 % 0.00 in /  0 mm
15:24 40.7 °F /  4.8 °C 38.0 °F /  3.3 °C 29.28 in /  991.4 hPa NE 0.8 mph /  1.3 km/h 3.5 mph /  5.6 km/h 90 % 0.00 in /  0 mm
15:29 40.6 °F /  4.8 °C 37.9 °F /  3.3 °C 29.28 in /  991.4 hPa NE 0.7 mph /  1.1 km/h 1.2 mph /  1.9 km/h 90 % 0.00 in /  0 mm
15:34 40.5 °F /  4.7 °C 37.8 °F /  3.2 °C 29.28 in /  991.4 hPa NE 0.4 mph /  0.6 km/h 1.2 mph /  1.9 km/h 90 % 0.00 in /  0 mm
15:39 40.5 °F /  4.7 °C 37.8 °F /  3.2 °C 29.28 in /  991.4 hPa NE 0.5 mph /  0.8 km/h 1.2 mph /  1.9 km/h 90 % 0.00 in /  0 mm
15:44 40.3 °F /  4.6 °C 37.6 °F /  3.1 °C 29.27 in /  991.1 hPa NE 0.5 mph /  0.8 km/h 2.3 mph /  3.7 km/h 90 % 0.00 in /  0 mm
15:49 40.2 °F /  4.6 °C 37.5 °F /  3.1 °C 29.27 in /  991.1 hPa NE 0.4 mph /  0.6 km/h 1.2 mph /  1.9 km/h 90 % 0.00 in /  0 mm
15:54 40.1 °F /  4.5 °C 37.4 °F /  3 °C 29.27 in /  991.1 hPa Calm   1.2 mph /  1.9 km/h 90 % 0.00 in /  0 mm
15:59 40.0 °F /  4.4 °C 37.6 °F /  3.1 °C 29.26 in /  990.7 hPa Calm   1.0 mph /  1.6 km/h 91 % 0.00 in /  0 mm
16:04 39.9 °F /  4.4 °C 37.2 °F /  2.9 °C 29.26 in /  990.7 hPa Calm     90 % 0.00 in /  0 mm
16:10 39.8 °F /  4.3 °C 37.1 °F /  2.8 °C 29.26 in /  990.7 hPa NE 0.1 mph /  0.2 km/h 1.2 mph /  1.9 km/h 90 % 0.00 in /  0 mm
16:15 39.7 °F /  4.3 °C 37.3 °F /  2.9 °C 29.26 in /  990.7 hPa Calm     91 % 0.00 in /  0 mm
16:20 39.7 °F /  4.3 °C 37.3 °F /  2.9 °C 29.26 in /  990.7 hPa Calm     91 % 0.00 in /  0 mm
16:25 39.7 °F /  4.3 °C 37.3 °F /  2.9 °C 29.26 in /  990.7 hPa Calm     91 % 0.00 in /  0 mm
16:30 39.7 °F /  4.3 °C 37.3 °F /  2.9 °C 29.25 in /  990.4 hPa Calm     91 % 0.00 in /  0 mm
16:35 39.7 °F /  4.3 °C 37.3 °F /  2.9 °C 29.25 in /  990.4 hPa Calm     91 % 0.00 in /  0 mm
16:40 39.7 °F /  4.3 °C 37.3 °F /  2.9 °C 29.25 in /  990.4 hPa Calm     91 % 0.00 in /  0 mm
16:45 39.7 °F /  4.3 °C 37.3 °F /  2.9 °C 29.25 in /  990.4 hPa Calm     91 % 0.00 in /  0 mm
16:50 39.7 °F /  4.3 °C 37.3 °F /  2.9 °C 29.25 in /  990.4 hPa Calm     91 % 0.00 in /  0 mm
16:55 39.7 °F /  4.3 °C 37.3 °F /  2.9 °C 29.25 in /  990.4 hPa Calm     91 % 0.00 in /  0 mm
17:00 39.6 °F /  4.2 °C 37.2 °F /  2.9 °C 29.25 in /  990.4 hPa Calm   1.2 mph /  1.9 km/h 91 % 0.00 in /  0 mm
17:05 39.4 °F /  4.1 °C 37.0 °F /  2.8 °C 29.25 in /  990.4 hPa NE 0.6 mph /  1 km/h 2.3 mph /  3.7 km/h 91 % 0.00 in /  0 mm
17:10 39.2 °F /  4 °C 36.5 °F /  2.5 °C 29.25 in /  990.4 hPa NE 0.1 mph /  0.2 km/h 1.2 mph /  1.9 km/h 90 % 0.00 in /  0 mm
17:15 39.0 °F /  3.9 °C 36.3 °F /  2.4 °C 29.25 in /  990.4 hPa Calm     90 % 0.00 in /  0 mm
17:20 38.8 °F /  3.8 °C 36.1 °F /  2.3 °C 29.26 in /  990.7 hPa Calm   1.0 mph /  1.6 km/h 90 % 0.00 in /  0 mm
17:25 38.8 °F /  3.8 °C 36.1 °F /  2.3 °C 29.26 in /  990.7 hPa NNW 0.6 mph /  1 km/h 1.2 mph /  1.9 km/h 90 % 0.00 in /  0 mm
17:31 38.6 °F /  3.7 °C 36.2 °F /  2.3 °C 29.27 in /  991.1 hPa West 0.5 mph /  0.8 km/h 1.2 mph /  1.9 km/h 91 % 0.00 in /  0 mm
17:36 38.6 °F /  3.7 °C 36.2 °F /  2.3 °C 29.27 in /  991.1 hPa NW 2.5 mph /  4 km/h 3.5 mph /  5.6 km/h 91 % 0.00 in /  0 mm
17:41 38.6 °F /  3.7 °C 36.2 °F /  2.3 °C 29.27 in /  991.1 hPa WNW 6.2 mph /  10 km/h 11.5 mph /  18.5 km/h 91 % 0.00 in /  0 mm
17:46 38.7 °F /  3.7 °C 36.3 °F /  2.4 °C 29.27 in /  991.1 hPa WNW 3.0 mph /  4.8 km/h 12.0 mph /  19.3 km/h 91 % 0.00 in /  0 mm
17:51 38.9 °F /  3.8 °C 36.5 °F /  2.5 °C 29.28 in /  991.4 hPa WNW 8.0 mph /  12.9 km/h 13.8 mph /  22.2 km/h 91 % 0.00 in /  0 mm
17:56 39.1 °F /  3.9 °C 36.7 °F /  2.6 °C 29.29 in /  991.8 hPa NW 7.7 mph /  12.4 km/h 11.5 mph /  18.5 km/h 91 % 0.00 in /  0 mm
18:01 39.1 °F /  3.9 °C 36.7 °F /  2.6 °C 29.29 in /  991.8 hPa NNW 9.3 mph /  15 km/h 17.3 mph /  27.8 km/h 91 % 0.00 in /  0 mm
18:06 38.9 °F /  3.8 °C 36.5 °F /  2.5 °C 29.29 in /  991.8 hPa WNW 6.5 mph /  10.5 km/h 12.7 mph /  20.4 km/h 91 % 0.00 in /  0 mm
18:11 38.8 °F /  3.8 °C 36.4 °F /  2.4 °C 29.29 in /  991.8 hPa WNW 4.3 mph /  6.9 km/h 11.5 mph /  18.5 km/h 91 % 0.00 in /  0 mm
18:16 38.7 °F /  3.7 °C 36.3 °F /  2.4 °C 29.29 in /  991.8 hPa West 2.5 mph /  4 km/h 8.1 mph /  13 km/h 91 % 0.00 in /  0 mm
18:21 38.5 °F /  3.6 °C 36.1 °F /  2.3 °C 29.29 in /  991.8 hPa West 4.2 mph /  6.8 km/h 10.4 mph /  16.7 km/h 91 % 0.00 in /  0 mm
18:26 38.4 °F /  3.6 °C 36.0 °F /  2.2 °C 29.30 in /  992.1 hPa WNW 2.9 mph /  4.7 km/h 11.5 mph /  18.5 km/h 91 % 0.00 in /  0 mm
18:31 38.2 °F /  3.4 °C 36.1 °F /  2.3 °C 29.30 in /  992.1 hPa West 8.2 mph /  13.2 km/h 12.7 mph /  20.4 km/h 92 % 0.00 in /  0 mm
18:36 38.1 °F /  3.4 °C 36.0 °F /  2.2 °C 29.30 in /  992.1 hPa West 5.6 mph /  9 km/h 11.5 mph /  18.5 km/h 92 % 0.00 in /  0 mm
18:42 38.1 °F /  3.4 °C 36.0 °F /  2.2 °C 29.30 in /  992.1 hPa WNW 5.6 mph /  9 km/h 9.2 mph /  14.8 km/h 92 % 0.00 in /  0 mm
18:47 38.1 °F /  3.4 °C 36.0 °F /  2.2 °C 29.31 in /  992.4 hPa West 4.7 mph /  7.6 km/h 12.7 mph /  20.4 km/h 92 % 0.00 in /  0 mm
18:52 38.0 °F /  3.3 °C 35.9 °F /  2.2 °C 29.31 in /  992.4 hPa WSW 5.4 mph /  8.7 km/h 10.0 mph /  16.1 km/h 92 % 0.00 in /  0 mm
18:57 38.0 °F /  3.3 °C 35.9 °F /  2.2 °C 29.31 in /  992.4 hPa West 4.0 mph /  6.4 km/h 6.9 mph /  11.1 km/h 92 % 0.00 in /  0 mm
19:02 38.0 °F /  3.3 °C 35.6 °F /  2 °C 29.31 in /  992.4 hPa West 5.4 mph /  8.7 km/h 9.0 mph /  14.5 km/h 91 % 0.00 in /  0 mm
19:07 38.0 °F /  3.3 °C 35.6 °F /  2 °C 29.31 in /  992.4 hPa NW 10.3 mph /  16.6 km/h 17.3 mph /  27.8 km/h 91 % 0.00 in /  0 mm
19:12 38.0 °F /  3.3 °C 35.6 °F /  2 °C 29.32 in /  992.8 hPa NNW 8.0 mph /  12.9 km/h 14.0 mph /  22.5 km/h 91 % 0.00 in /  0 mm
19:17 38.0 °F /  3.3 °C 35.6 °F /  2 °C 29.33 in /  993.1 hPa NNW 7.3 mph /  11.7 km/h 11.0 mph /  17.7 km/h 91 % 0.00 in /  0 mm
19:22 38.0 °F /  3.3 °C 35.3 °F /  1.8 °C 29.33 in /  993.1 hPa North 8.0 mph /  12.9 km/h 10.4 mph /  16.7 km/h 90 % 0.00 in /  0 mm
19:27 37.9 °F /  3.3 °C 35.2 °F /  1.8 °C 29.33 in /  993.1 hPa NW 3.1 mph /  5 km/h 5.8 mph /  9.3 km/h 90 % 0.00 in /  0 mm
19:32 37.9 °F /  3.3 °C 35.2 °F /  1.8 °C 29.33 in /  993.1 hPa NNW 5.0 mph /  8 km/h 8.1 mph /  13 km/h 90 % 0.00 in /  0 mm
19:37 37.8 °F /  3.2 °C 35.1 °F /  1.7 °C 29.34 in /  993.5 hPa West 5.6 mph /  9 km/h 10.0 mph /  16.1 km/h 90 % 0.00 in /  0 mm
19:42 37.7 °F /  3.2 °C 35.0 °F /  1.7 °C 29.34 in /  993.5 hPa NW 7.1 mph /  11.4 km/h 12.7 mph /  20.4 km/h 90 % 0.00 in /  0 mm
19:47 37.7 °F /  3.2 °C 34.8 °F /  1.6 °C 29.34 in /  993.5 hPa North 5.3 mph /  8.5 km/h 9.2 mph /  14.8 km/h 89 % 0.00 in /  0 mm
19:52 37.6 °F /  3.1 °C 34.7 °F /  1.5 °C 29.34 in /  993.5 hPa NNW 5.5 mph /  8.9 km/h 8.1 mph /  13 km/h 89 % 0.00 in /  0 mm
19:58 37.5 °F /  3.1 °C 34.6 °F /  1.4 °C 29.34 in /  993.5 hPa NNW 4.5 mph /  7.2 km/h 9.2 mph /  14.8 km/h 89 % 0.00 in /  0 mm
20:03 37.4 °F /  3 °C 34.5 °F /  1.4 °C 29.34 in /  993.5 hPa NNE 5.4 mph /  8.7 km/h 8.1 mph /  13 km/h 89 % 0.00 in /  0 mm
20:08 37.4 °F /  3 °C 34.5 °F /  1.4 °C 29.34 in /  993.5 hPa NW 2.9 mph /  4.7 km/h 6.0 mph /  9.7 km/h 89 % 0.00 in /  0 mm
20:13 37.3 °F /  2.9 °C 34.4 °F /  1.3 °C 29.34 in /  993.5 hPa WNW 4.2 mph /  6.8 km/h 7.0 mph /  11.3 km/h 89 % 0.00 in /  0 mm
20:18 37.2 °F /  2.9 °C 34.3 °F /  1.3 °C 29.35 in /  993.8 hPa WNW 7.4 mph /  11.9 km/h 12.7 mph /  20.4 km/h 89 % 0.00 in /  0 mm
20:23 37.1 °F /  2.8 °C 34.4 °F /  1.3 °C 29.35 in /  993.8 hPa NW 4.0 mph /  6.4 km/h 5.8 mph /  9.3 km/h 90 % 0.00 in /  0 mm
20:28 37.1 °F /  2.8 °C 34.4 °F /  1.3 °C 29.35 in /  993.8 hPa NNW 5.7 mph /  9.2 km/h 9.2 mph /  14.8 km/h 90 % 0.00 in /  0 mm
20:33 37.0 °F /  2.8 °C 34.3 °F /  1.3 °C 29.35 in /  993.8 hPa WNW 6.1 mph /  9.8 km/h 9.2 mph /  14.8 km/h 90 % 0.00 in /  0 mm
20:38 36.9 °F /  2.7 °C 34.2 °F /  1.2 °C 29.35 in /  993.8 hPa West 5.7 mph /  9.2 km/h 10.4 mph /  16.7 km/h 90 % 0.00 in /  0 mm
20:43 36.9 °F /  2.7 °C 34.0 °F /  1.1 °C 29.35 in /  993.8 hPa WNW 3.0 mph /  4.8 km/h 12.0 mph /  19.3 km/h 89 % 0.00 in /  0 mm
20:48 36.8 °F /  2.7 °C 33.9 °F /  1.1 °C 29.35 in /  993.8 hPa WNW 5.0 mph /  8 km/h 10.0 mph /  16.1 km/h 89 % 0.00 in /  0 mm
20:53 36.8 °F /  2.7 °C 33.9 °F /  1.1 °C 29.36 in /  994.1 hPa WNW 3.0 mph /  4.8 km/h 8.0 mph /  12.9 km/h 89 % 0.00 in /  0 mm
20:58 36.7 °F /  2.6 °C 33.8 °F /  1 °C 29.35 in /  993.8 hPa West 4.9 mph /  7.9 km/h 10.4 mph /  16.7 km/h 89 % 0.00 in /  0 mm
21:03 36.6 °F /  2.6 °C 33.7 °F /  0.9 °C 29.36 in /  994.1 hPa WSW 6.1 mph /  9.8 km/h 11.5 mph /  18.5 km/h 89 % 0.00 in /  0 mm
21:08 36.5 °F /  2.5 °C 33.6 °F /  0.9 °C 29.36 in /  994.1 hPa WNW 4.9 mph /  7.9 km/h 9.2 mph /  14.8 km/h 89 % 0.00 in /  0 mm
21:13 36.5 °F /  2.5 °C 33.8 °F /  1 °C 29.36 in /  994.1 hPa WSW 3.6 mph /  5.8 km/h 6.9 mph /  11.1 km/h 90 % 0.00 in /  0 mm
21:18 36.5 °F /  2.5 °C 33.8 °F /  1 °C 29.36 in /  994.1 hPa West 6.7 mph /  10.8 km/h 12.7 mph /  20.4 km/h 90 % 0.00 in /  0 mm
21:24 36.4 °F /  2.4 °C 33.5 °F /  0.8 °C 29.36 in /  994.1 hPa WNW 4.8 mph /  7.7 km/h 8.1 mph /  13 km/h 89 % 0.00 in /  0 mm
21:29 36.3 °F /  2.4 °C 33.1 °F /  0.6 °C 29.36 in /  994.1 hPa West 10.8 mph /  17.4 km/h 12.7 mph /  20.4 km/h 88 % 0.00 in /  0 mm
21:34 36.3 °F /  2.4 °C 32.5 °F /  0.3 °C 29.36 in /  994.1 hPa WNW 4.4 mph /  7.1 km/h 11.5 mph /  18.5 km/h 86 % 0.00 in /  0 mm
21:39 36.3 °F /  2.4 °C 31.6 °F /  -0.2 °C 29.36 in /  994.1 hPa WNW 4.9 mph /  7.9 km/h 12.0 mph /  19.3 km/h 83 % 0.00 in /  0 mm
21:44 36.3 °F /  2.4 °C 31.0 °F /  -0.6 °C 29.36 in /  994.1 hPa WNW 6.1 mph /  9.8 km/h 12.0 mph /  19.3 km/h 81 % 0.00 in /  0 mm
21:49 36.4 °F /  2.4 °C 30.5 °F /  -0.8 °C 29.37 in /  994.5 hPa NW 6.1 mph /  9.8 km/h 11.0 mph /  17.7 km/h 79 % 0.00 in /  0 mm
21:54 36.4 °F /  2.4 °C 30.2 °F /  -1 °C 29.37 in /  994.5 hPa NW 6.4 mph /  10.3 km/h 11.0 mph /  17.7 km/h 78 % 0.00 in /  0 mm
21:59 36.5 °F /  2.5 °C 30.0 °F /  -1.1 °C 29.37 in /  994.5 hPa WNW 4.9 mph /  7.9 km/h 12.7 mph /  20.4 km/h 77 % 0.00 in /  0 mm
22:04 36.5 °F /  2.5 °C 29.7 °F /  -1.3 °C 29.37 in /  994.5 hPa WNW 7.5 mph /  12.1 km/h 13.8 mph /  22.2 km/h 76 % 0.00 in /  0 mm
22:09 36.5 °F /  2.5 °C 29.7 °F /  -1.3 °C 29.37 in /  994.5 hPa WSW 4.7 mph /  7.6 km/h 11.5 mph /  18.5 km/h 76 % 0.00 in /  0 mm
22:14 36.5 °F /  2.5 °C 29.3 °F /  -1.5 °C 29.37 in /  994.5 hPa WNW 6.6 mph /  10.6 km/h 15.0 mph /  24.1 km/h 75 % 0.00 in /  0 mm
22:19 36.5 °F /  2.5 °C 29.3 °F /  -1.5 °C 29.37 in /  994.5 hPa West 6.8 mph /  10.9 km/h 15.0 mph /  24.1 km/h 75 % 0.00 in /  0 mm
22:24 36.5 °F /  2.5 °C 29.0 °F /  -1.7 °C 29.37 in /  994.5 hPa NW 9.0 mph /  14.5 km/h 17.3 mph /  27.8 km/h 74 % 0.00 in /  0 mm
22:29 36.6 °F /  2.6 °C 29.1 °F /  -1.6 °C 29.37 in /  994.5 hPa NW 9.7 mph /  15.6 km/h 12.7 mph /  20.4 km/h 74 % 0.00 in /  0 mm
22:34 36.6 °F /  2.6 °C 29.1 °F /  -1.6 °C 29.37 in /  994.5 hPa NW 7.4 mph /  11.9 km/h 15.0 mph /  24.1 km/h 74 % 0.00 in /  0 mm
22:39 36.6 °F /  2.6 °C 28.8 °F /  -1.8 °C 29.37 in /  994.5 hPa West 3.6 mph /  5.8 km/h 12.7 mph /  20.4 km/h 73 % 0.00 in /  0 mm
22:44 36.6 °F /  2.6 °C 28.8 °F /  -1.8 °C 29.37 in /  994.5 hPa West 3.7 mph /  6 km/h 11.5 mph /  18.5 km/h 73 % 0.00 in /  0 mm
22:50 36.5 °F /  2.5 °C 28.7 °F /  -1.8 °C 29.37 in /  994.5 hPa West 9.9 mph /  15.9 km/h 18.4 mph /  29.6 km/h 73 % 0.00 in /  0 mm
22:55 36.5 °F /  2.5 °C 28.7 °F /  -1.8 °C 29.37 in /  994.5 hPa WSW 6.7 mph /  10.8 km/h 18.4 mph /  29.6 km/h 73 % 0.00 in /  0 mm
23:00 36.5 °F /  2.5 °C 29.3 °F /  -1.5 °C 29.37 in /  994.5 hPa WSW 5.3 mph /  8.5 km/h 9.2 mph /  14.8 km/h 75 % 0.00 in /  0 mm
23:05 36.4 °F /  2.4 °C 29.6 °F /  -1.3 °C 29.37 in /  994.5 hPa West 3.3 mph /  5.3 km/h 7.0 mph /  11.3 km/h 76 % 0.00 in /  0 mm
23:10 36.2 °F /  2.3 °C 29.4 °F /  -1.4 °C 29.37 in /  994.5 hPa WSW 5.9 mph /  9.5 km/h 12.0 mph /  19.3 km/h 76 % 0.00 in /  0 mm
23:15 36.2 °F /  2.3 °C 29.7 °F /  -1.3 °C 29.38 in /  994.8 hPa WNW 7.9 mph /  12.7 km/h 10.4 mph /  16.7 km/h 77 % 0.00 in /  0 mm
23:20 36.0 °F /  2.2 °C 29.5 °F /  -1.4 °C 29.38 in /  994.8 hPa WNW 5.8 mph /  9.3 km/h 9.2 mph /  14.8 km/h 77 % 0.00 in /  0 mm
23:25 36.0 °F /  2.2 °C 29.5 °F /  -1.4 °C 29.38 in /  994.8 hPa WNW 3.5 mph /  5.6 km/h 8.1 mph /  13 km/h 77 % 0.00 in /  0 mm
23:30 35.9 °F /  2.2 °C 29.4 °F /  -1.4 °C 29.38 in /  994.8 hPa West 7.3 mph /  11.7 km/h 11.5 mph /  18.5 km/h 77 % 0.00 in /  0 mm
23:35 35.9 °F /  2.2 °C 29.4 °F /  -1.4 °C 29.38 in /  994.8 hPa West 4.6 mph /  7.4 km/h 9.0 mph /  14.5 km/h 77 % 0.00 in /  0 mm
23:40 35.8 °F /  2.1 °C 29.0 °F /  -1.7 °C 29.39 in /  995.1 hPa West 3.0 mph /  4.8 km/h 8.1 mph /  13 km/h 76 % 0.00 in /  0 mm
23:45 35.8 °F /  2.1 °C 29.3 °F /  -1.5 °C 29.38 in /  994.8 hPa West 5.6 mph /  9 km/h 11.5 mph /  18.5 km/h 77 % 0.00 in /  0 mm
23:50 35.7 °F /  2.1 °C 28.9 °F /  -1.7 °C 29.38 in /  994.8 hPa WSW 8.8 mph /  14.2 km/h 11.5 mph /  18.5 km/h 76 % 0.00 in /  0 mm
23:55 35.8 °F /  2.1 °C 29.0 °F /  -1.7 °C 29.38 in /  994.8 hPa West 6.1 mph /  9.8 km/h 10.4 mph /  16.7 km/h 76 % 0.00 in /  0 mm
Crab Meadow Weather
Compliments of Weather Underground - 3 mb

Script developed by  Jim McMurry - jmcmurry@mwt.net Adapted for the template by  Wim van der Kuil - Leuven-Template.eu

Weather Terms: Flood Warning (river flood)- A warning for specific communities or areas along a river where flooding is imminent or occurring. Flood warnings normally give specific crest forecasts.